<?xml version="1.0" encoding="UTF-8" standalone="no" ?>
<gpx xmlns="http://www.topografix.com/GPX/1/1" xmlns:xsi="http://www.w3.org/2001/XMLSchema-instance" xsi:schemaLocation="http://www.topografix.com/GPX/1/1 http://www.topografix.com/GPX/1/1/gpx.xsd" version="1.1" creator="VisuGPX - https://www.visugpx.com">
  <metadata>
    <name>Ligne 7 Tours Lignon - Hôpital</name>
  </metadata>
  <trk>
    <name><![CDATA[ligne 7 retour Tours Lignon - Hôpital_retour 7]]></name>
    <trkseg>
      <trkpt lat="46.20089" lon="6.09318">
        <ele>408</ele>
        <time>2020-05-04T12:47:04.000Z</time>
      </trkpt>
      <trkpt lat="46.20091" lon="6.09311">
        <ele>407.1</ele>
        <time>2020-05-04T12:47:04.506Z</time>
      </trkpt>
      <trkpt lat="46.2009" lon="6.09306">
        <ele>406.7</ele>
        <time>2020-05-04T12:47:04.798Z</time>
      </trkpt>
      <trkpt lat="46.20088" lon="6.09302">
        <ele>406.3</ele>
        <time>2020-05-04T12:47:05.120Z</time>
      </trkpt>
      <trkpt lat="46.20086" lon="6.09299">
        <ele>406</ele>
        <time>2020-05-04T12:47:05.452Z</time>
      </trkpt>
      <trkpt lat="46.20082" lon="6.09297">
        <ele>405</ele>
        <time>2020-05-04T12:47:05.824Z</time>
      </trkpt>
      <trkpt lat="46.20078" lon="6.09296">
        <ele>404.9</ele>
        <time>2020-05-04T12:47:06.232Z</time>
      </trkpt>
      <trkpt lat="46.20074" lon="6.09297">
        <ele>404.9</ele>
        <time>2020-05-04T12:47:07.174Z</time>
      </trkpt>
      <trkpt lat="46.2007" lon="6.093">
        <ele>405</ele>
        <time>2020-05-04T12:47:08.133Z</time>
      </trkpt>
      <trkpt lat="46.20069" lon="6.09303">
        <ele>405.3</ele>
        <time>2020-05-04T12:47:09.626Z</time>
      </trkpt>
      <trkpt lat="46.20068" lon="6.09307">
        <ele>405.6</ele>
        <time>2020-05-04T12:47:11.122Z</time>
      </trkpt>
      <trkpt lat="46.20069" lon="6.09312">
        <ele>406</ele>
        <time>2020-05-04T12:47:13.145Z</time>
      </trkpt>
      <trkpt lat="46.2007" lon="6.09318">
        <ele>406.7</ele>
        <time>2020-05-04T12:47:16.068Z</time>
      </trkpt>
      <trkpt lat="46.20073" lon="6.09324">
        <ele>407.7</ele>
        <time>2020-05-04T12:47:19.955Z</time>
      </trkpt>
      <trkpt lat="46.20075" lon="6.09331">
        <ele>408.7</ele>
        <time>2020-05-04T12:47:23.587Z</time>
      </trkpt>
      <trkpt lat="46.20076" lon="6.09336">
        <ele>410.3</ele>
        <time>2020-05-04T12:47:26.627Z</time>
      </trkpt>
      <trkpt lat="46.20076" lon="6.09341">
        <ele>410.2</ele>
        <time>2020-05-04T12:47:27.051Z</time>
      </trkpt>
      <trkpt lat="46.20076" lon="6.09347">
        <ele>410.1</ele>
        <time>2020-05-04T12:47:27.539Z</time>
      </trkpt>
      <trkpt lat="46.20064" lon="6.09417">
        <ele>413.7</ele>
        <time>2020-05-04T12:47:47.013Z</time>
      </trkpt>
      <trkpt lat="46.20062" lon="6.09428">
        <ele>412.5</ele>
        <time>2020-05-04T12:47:47.764Z</time>
      </trkpt>
      <trkpt lat="46.20062" lon="6.09436">
        <ele>411.5</ele>
        <time>2020-05-04T12:47:48.299Z</time>
      </trkpt>
      <trkpt lat="46.20062" lon="6.09446">
        <ele>410.6</ele>
        <time>2020-05-04T12:47:48.882Z</time>
      </trkpt>
      <trkpt lat="46.20063" lon="6.09454">
        <ele>410</ele>
        <time>2020-05-04T12:47:49.458Z</time>
      </trkpt>
      <trkpt lat="46.20065" lon="6.09463">
        <ele>409.6</ele>
        <time>2020-05-04T12:47:49.999Z</time>
      </trkpt>
      <trkpt lat="46.20068" lon="6.0947">
        <ele>409.5</ele>
        <time>2020-05-04T12:47:50.758Z</time>
      </trkpt>
      <trkpt lat="46.20073" lon="6.09477">
        <ele>409.6</ele>
        <time>2020-05-04T12:47:52.274Z</time>
      </trkpt>
      <trkpt lat="46.20078" lon="6.09481">
        <ele>409.8</ele>
        <time>2020-05-04T12:47:53.831Z</time>
      </trkpt>
      <trkpt lat="46.20083" lon="6.09485">
        <ele>410</ele>
        <time>2020-05-04T12:47:55.509Z</time>
      </trkpt>
      <trkpt lat="46.20089" lon="6.09487">
        <ele>415</ele>
        <time>2020-05-04T12:47:59.777Z</time>
      </trkpt>
      <trkpt lat="46.20096" lon="6.0949">
        <ele>415.6</ele>
        <time>2020-05-04T12:48:02.897Z</time>
      </trkpt>
      <trkpt lat="46.20104" lon="6.09491">
        <ele>416.8</ele>
        <time>2020-05-04T12:48:08.821Z</time>
      </trkpt>
      <trkpt lat="46.20111" lon="6.09491">
        <ele>417.8</ele>
        <time>2020-05-04T12:48:13.914Z</time>
      </trkpt>
      <trkpt lat="46.20119" lon="6.09491">
        <ele>419</ele>
        <time>2020-05-04T12:48:20.185Z</time>
      </trkpt>
      <trkpt lat="46.20133" lon="6.09492">
        <ele>420.7</ele>
        <time>2020-05-04T12:48:28.977Z</time>
      </trkpt>
      <trkpt lat="46.2014" lon="6.09494">
        <ele>421.6</ele>
        <time>2020-05-04T12:48:33.930Z</time>
      </trkpt>
      <trkpt lat="46.20146" lon="6.09496">
        <ele>422.4</ele>
        <time>2020-05-04T12:48:38.328Z</time>
      </trkpt>
      <trkpt lat="46.20152" lon="6.09499">
        <ele>423.5</ele>
        <time>2020-05-04T12:48:43.358Z</time>
      </trkpt>
      <trkpt lat="46.20158" lon="6.09504">
        <ele>423.5</ele>
        <time>2020-05-04T12:48:44.700Z</time>
      </trkpt>
      <trkpt lat="46.20163" lon="6.09509">
        <ele>423.5</ele>
        <time>2020-05-04T12:48:45.731Z</time>
      </trkpt>
      <trkpt lat="46.20177" lon="6.09528">
        <ele>423.1</ele>
        <time>2020-05-04T12:48:48.266Z</time>
      </trkpt>
      <trkpt lat="46.20233" lon="6.09611">
        <ele>421.6</ele>
        <time>2020-05-04T12:48:59.025Z</time>
      </trkpt>
      <trkpt lat="46.20332" lon="6.09756">
        <ele>422.2</ele>
        <time>2020-05-04T12:49:26.992Z</time>
      </trkpt>
      <trkpt lat="46.20384" lon="6.09834">
        <ele>419.5</ele>
        <time>2020-05-04T12:49:35.320Z</time>
      </trkpt>
      <trkpt lat="46.20416" lon="6.09887">
        <ele>418.4</ele>
        <time>2020-05-04T12:49:41.493Z</time>
      </trkpt>
      <trkpt lat="46.20419" lon="6.09893">
        <ele>416.9</ele>
        <time>2020-05-04T12:49:41.952Z</time>
      </trkpt>
      <trkpt lat="46.20421" lon="6.09899">
        <ele>416.9</ele>
        <time>2020-05-04T12:49:42.786Z</time>
      </trkpt>
      <trkpt lat="46.20422" lon="6.09904">
        <ele>417</ele>
        <time>2020-05-04T12:49:43.753Z</time>
      </trkpt>
      <trkpt lat="46.20424" lon="6.09909">
        <ele>417</ele>
        <time>2020-05-04T12:49:44.498Z</time>
      </trkpt>
      <trkpt lat="46.20424" lon="6.09916">
        <ele>417</ele>
        <time>2020-05-04T12:49:45.377Z</time>
      </trkpt>
      <trkpt lat="46.20424" lon="6.09921">
        <ele>417</ele>
        <time>2020-05-04T12:49:46.121Z</time>
      </trkpt>
      <trkpt lat="46.20423" lon="6.09927">
        <ele>417</ele>
        <time>2020-05-04T12:49:46.912Z</time>
      </trkpt>
      <trkpt lat="46.20422" lon="6.09934">
        <ele>416.9</ele>
        <time>2020-05-04T12:49:47.577Z</time>
      </trkpt>
      <trkpt lat="46.20419" lon="6.09941">
        <ele>416.9</ele>
        <time>2020-05-04T12:49:48.541Z</time>
      </trkpt>
      <trkpt lat="46.20416" lon="6.09948">
        <ele>417.3</ele>
        <time>2020-05-04T12:49:50.757Z</time>
      </trkpt>
      <trkpt lat="46.20412" lon="6.09954">
        <ele>417.3</ele>
        <time>2020-05-04T12:49:51.898Z</time>
      </trkpt>
      <trkpt lat="46.20406" lon="6.09962">
        <ele>417.3</ele>
        <time>2020-05-04T12:49:53.409Z</time>
      </trkpt>
      <trkpt lat="46.20402" lon="6.09967">
        <ele>417.3</ele>
        <time>2020-05-04T12:49:54.467Z</time>
      </trkpt>
      <trkpt lat="46.20383" lon="6.09993">
        <ele>417.3</ele>
        <time>2020-05-04T12:49:59.528Z</time>
      </trkpt>
      <trkpt lat="46.20368" lon="6.10012">
        <ele>417.1</ele>
        <time>2020-05-04T12:50:02.452Z</time>
      </trkpt>
      <trkpt lat="46.20355" lon="6.10031">
        <ele>417.3</ele>
        <time>2020-05-04T12:50:06.372Z</time>
      </trkpt>
      <trkpt lat="46.20341" lon="6.10051">
        <ele>417.6</ele>
        <time>2020-05-04T12:50:10.679Z</time>
      </trkpt>
      <trkpt lat="46.20322" lon="6.10076">
        <ele>418.6</ele>
        <time>2020-05-04T12:50:18.316Z</time>
      </trkpt>
      <trkpt lat="46.20314" lon="6.10087">
        <ele>418.4</ele>
        <time>2020-05-04T12:50:19.835Z</time>
      </trkpt>
      <trkpt lat="46.20304" lon="6.10097">
        <ele>418.1</ele>
        <time>2020-05-04T12:50:21.373Z</time>
      </trkpt>
      <trkpt lat="46.20288" lon="6.10112">
        <ele>417.8</ele>
        <time>2020-05-04T12:50:23.933Z</time>
      </trkpt>
      <trkpt lat="46.20277" lon="6.1012">
        <ele>417.7</ele>
        <time>2020-05-04T12:50:25.865Z</time>
      </trkpt>
      <trkpt lat="46.20266" lon="6.10129">
        <ele>417.5</ele>
        <time>2020-05-04T12:50:27.571Z</time>
      </trkpt>
      <trkpt lat="46.20253" lon="6.1014">
        <ele>417.2</ele>
        <time>2020-05-04T12:50:29.611Z</time>
      </trkpt>
      <trkpt lat="46.2024" lon="6.10152">
        <ele>416.4</ele>
        <time>2020-05-04T12:50:30.993Z</time>
      </trkpt>
      <trkpt lat="46.20233" lon="6.1016">
        <ele>416.4</ele>
        <time>2020-05-04T12:50:32.909Z</time>
      </trkpt>
      <trkpt lat="46.2022" lon="6.10176">
        <ele>416.4</ele>
        <time>2020-05-04T12:50:36.118Z</time>
      </trkpt>
      <trkpt lat="46.20182" lon="6.10219">
        <ele>417.2</ele>
        <time>2020-05-04T12:50:46.869Z</time>
      </trkpt>
      <trkpt lat="46.2017" lon="6.10234">
        <ele>417.9</ele>
        <time>2020-05-04T12:50:52.000Z</time>
      </trkpt>
      <trkpt lat="46.20159" lon="6.10248">
        <ele>418.7</ele>
        <time>2020-05-04T12:50:57.121Z</time>
      </trkpt>
      <trkpt lat="46.2014" lon="6.10274">
        <ele>418.9</ele>
        <time>2020-05-04T12:51:02.540Z</time>
      </trkpt>
      <trkpt lat="46.20133" lon="6.10282">
        <ele>418.8</ele>
        <time>2020-05-04T12:51:03.783Z</time>
      </trkpt>
      <trkpt lat="46.20127" lon="6.10287">
        <ele>418.8</ele>
        <time>2020-05-04T12:51:05.047Z</time>
      </trkpt>
      <trkpt lat="46.20121" lon="6.10294">
        <ele>418.7</ele>
        <time>2020-05-04T12:51:06.196Z</time>
      </trkpt>
      <trkpt lat="46.20116" lon="6.103">
        <ele>418.6</ele>
        <time>2020-05-04T12:51:07.172Z</time>
      </trkpt>
      <trkpt lat="46.20103" lon="6.10319">
        <ele>418.2</ele>
        <time>2020-05-04T12:51:09.469Z</time>
      </trkpt>
      <trkpt lat="46.201" lon="6.10326">
        <ele>418</ele>
        <time>2020-05-04T12:51:10.094Z</time>
      </trkpt>
      <trkpt lat="46.20097" lon="6.10334">
        <ele>417.5</ele>
        <time>2020-05-04T12:51:10.670Z</time>
      </trkpt>
      <trkpt lat="46.20094" lon="6.10343">
        <ele>417.5</ele>
        <time>2020-05-04T12:51:12.057Z</time>
      </trkpt>
      <trkpt lat="46.20093" lon="6.10351">
        <ele>417.5</ele>
        <time>2020-05-04T12:51:13.085Z</time>
      </trkpt>
      <trkpt lat="46.20092" lon="6.10359">
        <ele>417.5</ele>
        <time>2020-05-04T12:51:14.129Z</time>
      </trkpt>
      <trkpt lat="46.20092" lon="6.10365">
        <ele>417.5</ele>
        <time>2020-05-04T12:51:14.990Z</time>
      </trkpt>
      <trkpt lat="46.20093" lon="6.10371">
        <ele>417.4</ele>
        <time>2020-05-04T12:51:15.566Z</time>
      </trkpt>
      <trkpt lat="46.20094" lon="6.10379">
        <ele>417.3</ele>
        <time>2020-05-04T12:51:16.246Z</time>
      </trkpt>
      <trkpt lat="46.20096" lon="6.10385">
        <ele>417.1</ele>
        <time>2020-05-04T12:51:16.776Z</time>
      </trkpt>
      <trkpt lat="46.201" lon="6.10393">
        <ele>417</ele>
        <time>2020-05-04T12:51:17.656Z</time>
      </trkpt>
      <trkpt lat="46.20131" lon="6.10452">
        <ele>412.2</ele>
        <time>2020-05-04T12:51:22.422Z</time>
      </trkpt>
      <trkpt lat="46.20142" lon="6.10472">
        <ele>411.9</ele>
        <time>2020-05-04T12:51:24.826Z</time>
      </trkpt>
      <trkpt lat="46.20153" lon="6.10489">
        <ele>412.7</ele>
        <time>2020-05-04T12:51:30.159Z</time>
      </trkpt>
      <trkpt lat="46.20163" lon="6.10501">
        <ele>412.8</ele>
        <time>2020-05-04T12:51:32.891Z</time>
      </trkpt>
      <trkpt lat="46.20174" lon="6.10512">
        <ele>415.6</ele>
        <time>2020-05-04T12:51:42.797Z</time>
      </trkpt>
      <trkpt lat="46.20193" lon="6.10528">
        <ele>416.4</ele>
        <time>2020-05-04T12:51:49.147Z</time>
      </trkpt>
      <trkpt lat="46.20206" lon="6.10539">
        <ele>416.9</ele>
        <time>2020-05-04T12:51:53.234Z</time>
      </trkpt>
      <trkpt lat="46.20216" lon="6.10547">
        <ele>417.5</ele>
        <time>2020-05-04T12:51:57.107Z</time>
      </trkpt>
      <trkpt lat="46.20225" lon="6.10557">
        <ele>418.1</ele>
        <time>2020-05-04T12:52:00.860Z</time>
      </trkpt>
      <trkpt lat="46.20232" lon="6.10567">
        <ele>419</ele>
        <time>2020-05-04T12:52:05.409Z</time>
      </trkpt>
      <trkpt lat="46.20238" lon="6.10577">
        <ele>420.3</ele>
        <time>2020-05-04T12:52:12.276Z</time>
      </trkpt>
      <trkpt lat="46.20245" lon="6.10591">
        <ele>418.9</ele>
        <time>2020-05-04T12:52:13.398Z</time>
      </trkpt>
      <trkpt lat="46.20252" lon="6.10607">
        <ele>420.4</ele>
        <time>2020-05-04T12:52:20.976Z</time>
      </trkpt>
      <trkpt lat="46.20271" lon="6.10654">
        <ele>417.7</ele>
        <time>2020-05-04T12:52:24.426Z</time>
      </trkpt>
      <trkpt lat="46.20292" lon="6.10705">
        <ele>415.3</ele>
        <time>2020-05-04T12:52:28.183Z</time>
      </trkpt>
      <trkpt lat="46.203" lon="6.10722">
        <ele>415.6</ele>
        <time>2020-05-04T12:52:31.566Z</time>
      </trkpt>
      <trkpt lat="46.20308" lon="6.10736">
        <ele>416.5</ele>
        <time>2020-05-04T12:52:36.462Z</time>
      </trkpt>
      <trkpt lat="46.20317" lon="6.10749">
        <ele>417.9</ele>
        <time>2020-05-04T12:52:43.500Z</time>
      </trkpt>
      <trkpt lat="46.20339" lon="6.10782">
        <ele>421.4</ele>
        <time>2020-05-04T12:53:01.016Z</time>
      </trkpt>
      <trkpt lat="46.20367" lon="6.10825">
        <ele>421.6</ele>
        <time>2020-05-04T12:53:09.198Z</time>
      </trkpt>
      <trkpt lat="46.20416" lon="6.10899">
        <ele>421.6</ele>
        <time>2020-05-04T12:53:22.697Z</time>
      </trkpt>
      <trkpt lat="46.2044" lon="6.10937">
        <ele>423.5</ele>
        <time>2020-05-04T12:53:34.940Z</time>
      </trkpt>
      <trkpt lat="46.20455" lon="6.10961">
        <ele>423.1</ele>
        <time>2020-05-04T12:53:37.974Z</time>
      </trkpt>
      <trkpt lat="46.20464" lon="6.10977">
        <ele>422.8</ele>
        <time>2020-05-04T12:53:39.711Z</time>
      </trkpt>
      <trkpt lat="46.2047" lon="6.10991">
        <ele>422.7</ele>
        <time>2020-05-04T12:53:41.507Z</time>
      </trkpt>
      <trkpt lat="46.20476" lon="6.11005">
        <ele>420.9</ele>
        <time>2020-05-04T12:53:42.560Z</time>
      </trkpt>
      <trkpt lat="46.20481" lon="6.11023">
        <ele>420.7</ele>
        <time>2020-05-04T12:53:44.444Z</time>
      </trkpt>
      <trkpt lat="46.20485" lon="6.11045">
        <ele>420.5</ele>
        <time>2020-05-04T12:53:46.657Z</time>
      </trkpt>
      <trkpt lat="46.20487" lon="6.11058">
        <ele>420.6</ele>
        <time>2020-05-04T12:53:48.623Z</time>
      </trkpt>
      <trkpt lat="46.20489" lon="6.11073">
        <ele>420.9</ele>
        <time>2020-05-04T12:53:51.341Z</time>
      </trkpt>
      <trkpt lat="46.20491" lon="6.111">
        <ele>420.7</ele>
        <time>2020-05-04T12:53:54.097Z</time>
      </trkpt>
      <trkpt lat="46.20498" lon="6.11202">
        <ele>421.8</ele>
        <time>2020-05-04T12:54:09.897Z</time>
      </trkpt>
      <trkpt lat="46.205" lon="6.11242">
        <ele>422.5</ele>
        <time>2020-05-04T12:54:16.828Z</time>
      </trkpt>
      <trkpt lat="46.20501" lon="6.11266">
        <ele>423.8</ele>
        <time>2020-05-04T12:54:23.709Z</time>
      </trkpt>
      <trkpt lat="46.20503" lon="6.11289">
        <ele>424.4</ele>
        <time>2020-05-04T12:54:28.308Z</time>
      </trkpt>
      <trkpt lat="46.20505" lon="6.11318">
        <ele>424.9</ele>
        <time>2020-05-04T12:54:33.363Z</time>
      </trkpt>
      <trkpt lat="46.20507" lon="6.11332">
        <ele>425</ele>
        <time>2020-05-04T12:54:35.406Z</time>
      </trkpt>
      <trkpt lat="46.20509" lon="6.11345">
        <ele>425.2</ele>
        <time>2020-05-04T12:54:37.634Z</time>
      </trkpt>
      <trkpt lat="46.20512" lon="6.11359">
        <ele>425.3</ele>
        <time>2020-05-04T12:54:39.803Z</time>
      </trkpt>
      <trkpt lat="46.20516" lon="6.11372">
        <ele>425.2</ele>
        <time>2020-05-04T12:54:41.197Z</time>
      </trkpt>
      <trkpt lat="46.20528" lon="6.11409">
        <ele>425.1</ele>
        <time>2020-05-04T12:54:46.327Z</time>
      </trkpt>
      <trkpt lat="46.20543" lon="6.11456">
        <ele>424.5</ele>
        <time>2020-05-04T12:54:51.171Z</time>
      </trkpt>
      <trkpt lat="46.20564" lon="6.11536">
        <ele>423.9</ele>
        <time>2020-05-04T12:55:00.005Z</time>
      </trkpt>
      <trkpt lat="46.2058" lon="6.11602">
        <ele>423.8</ele>
        <time>2020-05-04T12:55:09.028Z</time>
      </trkpt>
      <trkpt lat="46.2059" lon="6.11646">
        <ele>424</ele>
        <time>2020-05-04T12:55:15.529Z</time>
      </trkpt>
      <trkpt lat="46.20603" lon="6.11704">
        <ele>423</ele>
        <time>2020-05-04T12:55:20.740Z</time>
      </trkpt>
      <trkpt lat="46.20628" lon="6.11812">
        <ele>420.3</ele>
        <time>2020-05-04T12:55:29.670Z</time>
      </trkpt>
      <trkpt lat="46.20655" lon="6.11932">
        <ele>421.6</ele>
        <time>2020-05-04T12:55:48.930Z</time>
      </trkpt>
      <trkpt lat="46.20694" lon="6.12104">
        <ele>418.5</ele>
        <time>2020-05-04T12:56:04.592Z</time>
      </trkpt>
      <trkpt lat="46.20695" lon="6.12115">
        <ele>418.4</ele>
        <time>2020-05-04T12:56:05.641Z</time>
      </trkpt>
      <trkpt lat="46.20695" lon="6.12122">
        <ele>418.3</ele>
        <time>2020-05-04T12:56:06.278Z</time>
      </trkpt>
      <trkpt lat="46.20693" lon="6.12131">
        <ele>418.2</ele>
        <time>2020-05-04T12:56:07.164Z</time>
      </trkpt>
      <trkpt lat="46.20691" lon="6.12141">
        <ele>418.1</ele>
        <time>2020-05-04T12:56:08.217Z</time>
      </trkpt>
      <trkpt lat="46.20688" lon="6.12157">
        <ele>417.9</ele>
        <time>2020-05-04T12:56:09.813Z</time>
      </trkpt>
      <trkpt lat="46.20683" lon="6.12173">
        <ele>417.8</ele>
        <time>2020-05-04T12:56:11.590Z</time>
      </trkpt>
      <trkpt lat="46.20661" lon="6.12248">
        <ele>417</ele>
        <time>2020-05-04T12:56:19.488Z</time>
      </trkpt>
      <trkpt lat="46.20659" lon="6.12251">
        <ele>417</ele>
        <time>2020-05-04T12:56:20.076Z</time>
      </trkpt>
      <trkpt lat="46.20656" lon="6.12255">
        <ele>417</ele>
        <time>2020-05-04T12:56:20.871Z</time>
      </trkpt>
      <trkpt lat="46.20653" lon="6.12258">
        <ele>417</ele>
        <time>2020-05-04T12:56:21.603Z</time>
      </trkpt>
      <trkpt lat="46.20647" lon="6.12261">
        <ele>417</ele>
        <time>2020-05-04T12:56:22.759Z</time>
      </trkpt>
      <trkpt lat="46.20642" lon="6.12263">
        <ele>417</ele>
        <time>2020-05-04T12:56:23.803Z</time>
      </trkpt>
      <trkpt lat="46.20614" lon="6.12274">
        <ele>417</ele>
        <time>2020-05-04T12:56:29.324Z</time>
      </trkpt>
      <trkpt lat="46.20586" lon="6.12286">
        <ele>416.9</ele>
        <time>2020-05-04T12:56:34.702Z</time>
      </trkpt>
      <trkpt lat="46.20567" lon="6.12294">
        <ele>415</ele>
        <time>2020-05-04T12:56:36.506Z</time>
      </trkpt>
      <trkpt lat="46.20554" lon="6.123">
        <ele>414.8</ele>
        <time>2020-05-04T12:56:38.450Z</time>
      </trkpt>
      <trkpt lat="46.20545" lon="6.12307">
        <ele>414.6</ele>
        <time>2020-05-04T12:56:39.792Z</time>
      </trkpt>
      <trkpt lat="46.20531" lon="6.12319">
        <ele>414.2</ele>
        <time>2020-05-04T12:56:41.739Z</time>
      </trkpt>
      <trkpt lat="46.20516" lon="6.12329">
        <ele>413.7</ele>
        <time>2020-05-04T12:56:43.784Z</time>
      </trkpt>
      <trkpt lat="46.2051" lon="6.12331">
        <ele>413.5</ele>
        <time>2020-05-04T12:56:44.493Z</time>
      </trkpt>
      <trkpt lat="46.20501" lon="6.12335">
        <ele>413.2</ele>
        <time>2020-05-04T12:56:45.464Z</time>
      </trkpt>
      <trkpt lat="46.20475" lon="6.12348">
        <ele>414.5</ele>
        <time>2020-05-04T12:56:54.540Z</time>
      </trkpt>
      <trkpt lat="46.20454" lon="6.1236">
        <ele>415</ele>
        <time>2020-05-04T12:56:59.893Z</time>
      </trkpt>
      <trkpt lat="46.20451" lon="6.12363">
        <ele>415</ele>
        <time>2020-05-04T12:57:00.702Z</time>
      </trkpt>
      <trkpt lat="46.20449" lon="6.12367">
        <ele>415.1</ele>
        <time>2020-05-04T12:57:01.576Z</time>
      </trkpt>
      <trkpt lat="46.20447" lon="6.12372">
        <ele>415.2</ele>
        <time>2020-05-04T12:57:02.551Z</time>
      </trkpt>
      <trkpt lat="46.20444" lon="6.12386">
        <ele>415.5</ele>
        <time>2020-05-04T12:57:05.249Z</time>
      </trkpt>
      <trkpt lat="46.20428" lon="6.12457">
        <ele>417.3</ele>
        <time>2020-05-04T12:57:19.726Z</time>
      </trkpt>
      <trkpt lat="46.20427" lon="6.12459">
        <ele>417.3</ele>
        <time>2020-05-04T12:57:20.141Z</time>
      </trkpt>
      <trkpt lat="46.20425" lon="6.12462">
        <ele>417.3</ele>
        <time>2020-05-04T12:57:20.710Z</time>
      </trkpt>
      <trkpt lat="46.20424" lon="6.12466">
        <ele>417.3</ele>
        <time>2020-05-04T12:57:21.256Z</time>
      </trkpt>
      <trkpt lat="46.20424" lon="6.12471">
        <ele>417.3</ele>
        <time>2020-05-04T12:57:21.799Z</time>
      </trkpt>
      <trkpt lat="46.20425" lon="6.12475">
        <ele>417.3</ele>
        <time>2020-05-04T12:57:22.422Z</time>
      </trkpt>
      <trkpt lat="46.20426" lon="6.12479">
        <ele>417.3</ele>
        <time>2020-05-04T12:57:22.960Z</time>
      </trkpt>
      <trkpt lat="46.20428" lon="6.12484">
        <ele>417.3</ele>
        <time>2020-05-04T12:57:23.723Z</time>
      </trkpt>
      <trkpt lat="46.2043" lon="6.12488">
        <ele>417.3</ele>
        <time>2020-05-04T12:57:24.408Z</time>
      </trkpt>
      <trkpt lat="46.20431" lon="6.12494">
        <ele>417.3</ele>
        <time>2020-05-04T12:57:25.173Z</time>
      </trkpt>
      <trkpt lat="46.20432" lon="6.12499">
        <ele>417.3</ele>
        <time>2020-05-04T12:57:25.909Z</time>
      </trkpt>
      <trkpt lat="46.20436" lon="6.12537">
        <ele>418</ele>
        <time>2020-05-04T12:57:32.536Z</time>
      </trkpt>
      <trkpt lat="46.20445" lon="6.12609">
        <ele>417.7</ele>
        <time>2020-05-04T12:57:41.437Z</time>
      </trkpt>
      <trkpt lat="46.20472" lon="6.1281">
        <ele>413.5</ele>
        <time>2020-05-04T12:57:58.129Z</time>
      </trkpt>
      <trkpt lat="46.20484" lon="6.12908">
        <ele>411.8</ele>
        <time>2020-05-04T12:58:06.756Z</time>
      </trkpt>
      <trkpt lat="46.20494" lon="6.12992">
        <ele>409.8</ele>
        <time>2020-05-04T12:58:13.416Z</time>
      </trkpt>
      <trkpt lat="46.205" lon="6.13044">
        <ele>411.1</ele>
        <time>2020-05-04T12:58:23.778Z</time>
      </trkpt>
      <trkpt lat="46.20511" lon="6.13125">
        <ele>409.5</ele>
        <time>2020-05-04T12:58:30.617Z</time>
      </trkpt>
      <trkpt lat="46.20515" lon="6.13155">
        <ele>409.1</ele>
        <time>2020-05-04T12:58:33.429Z</time>
      </trkpt>
      <trkpt lat="46.20516" lon="6.13164">
        <ele>409</ele>
        <time>2020-05-04T12:58:34.235Z</time>
      </trkpt>
      <trkpt lat="46.20519" lon="6.13174">
        <ele>407.5</ele>
        <time>2020-05-04T12:58:34.955Z</time>
      </trkpt>
      <trkpt lat="46.20524" lon="6.13192">
        <ele>406.9</ele>
        <time>2020-05-04T12:58:36.277Z</time>
      </trkpt>
      <trkpt lat="46.20534" lon="6.13231">
        <ele>405.9</ele>
        <time>2020-05-04T12:58:39.552Z</time>
      </trkpt>
      <trkpt lat="46.20541" lon="6.13266">
        <ele>403.9</ele>
        <time>2020-05-04T12:58:41.873Z</time>
      </trkpt>
      <trkpt lat="46.20545" lon="6.13288">
        <ele>403.7</ele>
        <time>2020-05-04T12:58:44.070Z</time>
      </trkpt>
      <trkpt lat="46.20555" lon="6.1337">
        <ele>400.7</ele>
        <time>2020-05-04T12:58:49.613Z</time>
      </trkpt>
      <trkpt lat="46.20563" lon="6.13435">
        <ele>397.7</ele>
        <time>2020-05-04T12:58:53.503Z</time>
      </trkpt>
      <trkpt lat="46.20575" lon="6.13513">
        <ele>394</ele>
        <time>2020-05-04T12:58:58.634Z</time>
      </trkpt>
      <trkpt lat="46.20577" lon="6.1353">
        <ele>392.8</ele>
        <time>2020-05-04T12:58:59.756Z</time>
      </trkpt>
      <trkpt lat="46.2058" lon="6.13547">
        <ele>391.7</ele>
        <time>2020-05-04T12:59:00.862Z</time>
      </trkpt>
      <trkpt lat="46.20583" lon="6.13567">
        <ele>390.4</ele>
        <time>2020-05-04T12:59:02.156Z</time>
      </trkpt>
      <trkpt lat="46.20592" lon="6.13611">
        <ele>391.3</ele>
        <time>2020-05-04T12:59:10.355Z</time>
      </trkpt>
      <trkpt lat="46.20602" lon="6.13651">
        <ele>390.3</ele>
        <time>2020-05-04T12:59:13.681Z</time>
      </trkpt>
      <trkpt lat="46.20617" lon="6.13704">
        <ele>389.8</ele>
        <time>2020-05-04T12:59:19.289Z</time>
      </trkpt>
      <trkpt lat="46.20625" lon="6.13728">
        <ele>390.1</ele>
        <time>2020-05-04T12:59:23.452Z</time>
      </trkpt>
      <trkpt lat="46.20634" lon="6.1376">
        <ele>389.5</ele>
        <time>2020-05-04T12:59:26.433Z</time>
      </trkpt>
      <trkpt lat="46.20637" lon="6.13771">
        <ele>389.5</ele>
        <time>2020-05-04T12:59:27.990Z</time>
      </trkpt>
      <trkpt lat="46.20638" lon="6.13786">
        <ele>389.2</ele>
        <time>2020-05-04T12:59:29.282Z</time>
      </trkpt>
      <trkpt lat="46.20641" lon="6.1383">
        <ele>389.1</ele>
        <time>2020-05-04T12:59:34.875Z</time>
      </trkpt>
      <trkpt lat="46.20648" lon="6.13936">
        <ele>388</ele>
        <time>2020-05-04T12:59:45.089Z</time>
      </trkpt>
      <trkpt lat="46.2065" lon="6.13969">
        <ele>388.2</ele>
        <time>2020-05-04T12:59:49.943Z</time>
      </trkpt>
      <trkpt lat="46.20655" lon="6.14018">
        <ele>388.9</ele>
        <time>2020-05-04T12:59:57.883Z</time>
      </trkpt>
      <trkpt lat="46.20655" lon="6.14022">
        <ele>388.7</ele>
        <time>2020-05-04T12:59:58.162Z</time>
      </trkpt>
      <trkpt lat="46.20655" lon="6.14026">
        <ele>388.6</ele>
        <time>2020-05-04T12:59:58.501Z</time>
      </trkpt>
      <trkpt lat="46.20653" lon="6.14031">
        <ele>388.3</ele>
        <time>2020-05-04T12:59:58.862Z</time>
      </trkpt>
      <trkpt lat="46.20648" lon="6.1404">
        <ele>388</ele>
        <time>2020-05-04T12:59:59.653Z</time>
      </trkpt>
      <trkpt lat="46.20616" lon="6.14102">
        <ele>387</ele>
        <time>2020-05-04T13:00:06.823Z</time>
      </trkpt>
      <trkpt lat="46.20598" lon="6.14137">
        <ele>386.9</ele>
        <time>2020-05-04T13:00:12.308Z</time>
      </trkpt>
      <trkpt lat="46.20573" lon="6.1418">
        <ele>382.6</ele>
        <time>2020-05-04T13:00:15.911Z</time>
      </trkpt>
      <trkpt lat="46.20565" lon="6.14195">
        <ele>381</ele>
        <time>2020-05-04T13:00:17.141Z</time>
      </trkpt>
      <trkpt lat="46.20563" lon="6.14201">
        <ele>380.6</ele>
        <time>2020-05-04T13:00:17.578Z</time>
      </trkpt>
      <trkpt lat="46.20561" lon="6.14208">
        <ele>380.4</ele>
        <time>2020-05-04T13:00:18.092Z</time>
      </trkpt>
      <trkpt lat="46.2056" lon="6.14215">
        <ele>380.3</ele>
        <time>2020-05-04T13:00:18.744Z</time>
      </trkpt>
      <trkpt lat="46.2056" lon="6.14223">
        <ele>380.2</ele>
        <time>2020-05-04T13:00:19.455Z</time>
      </trkpt>
      <trkpt lat="46.20559" lon="6.14249">
        <ele>380.4</ele>
        <time>2020-05-04T13:00:23.315Z</time>
      </trkpt>
      <trkpt lat="46.20558" lon="6.14256">
        <ele>380.5</ele>
        <time>2020-05-04T13:00:24.443Z</time>
      </trkpt>
      <trkpt lat="46.20556" lon="6.14261">
        <ele>380.3</ele>
        <time>2020-05-04T13:00:24.856Z</time>
      </trkpt>
      <trkpt lat="46.20553" lon="6.14266">
        <ele>380.1</ele>
        <time>2020-05-04T13:00:25.324Z</time>
      </trkpt>
      <trkpt lat="46.20548" lon="6.14269">
        <ele>379.8</ele>
        <time>2020-05-04T13:00:25.813Z</time>
      </trkpt>
      <trkpt lat="46.20537" lon="6.14275">
        <ele>379.2</ele>
        <time>2020-05-04T13:00:26.935Z</time>
      </trkpt>
      <trkpt lat="46.20485" lon="6.14302">
        <ele>377.5</ele>
        <time>2020-05-04T13:00:33.345Z</time>
      </trkpt>
      <trkpt lat="46.20455" lon="6.14316">
        <ele>378.3</ele>
        <time>2020-05-04T13:00:41.228Z</time>
      </trkpt>
      <trkpt lat="46.20451" lon="6.14315">
        <ele>378.4</ele>
        <time>2020-05-04T13:00:42.171Z</time>
      </trkpt>
      <trkpt lat="46.20448" lon="6.14314">
        <ele>378.5</ele>
        <time>2020-05-04T13:00:43.048Z</time>
      </trkpt>
      <trkpt lat="46.20445" lon="6.14309">
        <ele>378.4</ele>
        <time>2020-05-04T13:00:43.611Z</time>
      </trkpt>
      <trkpt lat="46.20443" lon="6.14304">
        <ele>378.4</ele>
        <time>2020-05-04T13:00:44.462Z</time>
      </trkpt>
      <trkpt lat="46.20439" lon="6.1429">
        <ele>378.1</ele>
        <time>2020-05-04T13:00:45.684Z</time>
      </trkpt>
      <trkpt lat="46.20423" lon="6.1421">
        <ele>375.7</ele>
        <time>2020-05-04T13:00:51.711Z</time>
      </trkpt>
      <trkpt lat="46.20421" lon="6.14204">
        <ele>375.6</ele>
        <time>2020-05-04T13:00:52.310Z</time>
      </trkpt>
      <trkpt lat="46.20418" lon="6.14199">
        <ele>375.5</ele>
        <time>2020-05-04T13:00:52.922Z</time>
      </trkpt>
      <trkpt lat="46.20415" lon="6.14197">
        <ele>379</ele>
        <time>2020-05-04T13:00:55.171Z</time>
      </trkpt>
      <trkpt lat="46.20412" lon="6.14195">
        <ele>379</ele>
        <time>2020-05-04T13:00:55.891Z</time>
      </trkpt>
      <trkpt lat="46.20407" lon="6.14195">
        <ele>379.2</ele>
        <time>2020-05-04T13:00:57.343Z</time>
      </trkpt>
      <trkpt lat="46.20403" lon="6.14197">
        <ele>379.4</ele>
        <time>2020-05-04T13:00:58.633Z</time>
      </trkpt>
      <trkpt lat="46.20399" lon="6.142">
        <ele>379.8</ele>
        <time>2020-05-04T13:01:00.687Z</time>
      </trkpt>
      <trkpt lat="46.20381" lon="6.14222">
        <ele>381</ele>
        <time>2020-05-04T13:01:08.749Z</time>
      </trkpt>
      <trkpt lat="46.20374" lon="6.14232">
        <ele>381.5</ele>
        <time>2020-05-04T13:01:11.980Z</time>
      </trkpt>
      <trkpt lat="46.20371" lon="6.14237">
        <ele>381.7</ele>
        <time>2020-05-04T13:01:13.366Z</time>
      </trkpt>
      <trkpt lat="46.2037" lon="6.14243">
        <ele>381.9</ele>
        <time>2020-05-04T13:01:14.829Z</time>
      </trkpt>
      <trkpt lat="46.20369" lon="6.1425">
        <ele>384</ele>
        <time>2020-05-04T13:01:18.614Z</time>
      </trkpt>
      <trkpt lat="46.2037" lon="6.14259">
        <ele>384</ele>
        <time>2020-05-04T13:01:19.739Z</time>
      </trkpt>
      <trkpt lat="46.20373" lon="6.14279">
        <ele>384.2</ele>
        <time>2020-05-04T13:01:22.855Z</time>
      </trkpt>
      <trkpt lat="46.20376" lon="6.14297">
        <ele>384.6</ele>
        <time>2020-05-04T13:01:26.332Z</time>
      </trkpt>
      <trkpt lat="46.2038" lon="6.14314">
        <ele>384.7</ele>
        <time>2020-05-04T13:01:28.935Z</time>
      </trkpt>
      <trkpt lat="46.20384" lon="6.14331">
        <ele>384.5</ele>
        <time>2020-05-04T13:01:30.532Z</time>
      </trkpt>
      <trkpt lat="46.20388" lon="6.14358">
        <ele>388.2</ele>
        <time>2020-05-04T13:01:44.635Z</time>
      </trkpt>
      <trkpt lat="46.20389" lon="6.14371">
        <ele>388.8</ele>
        <time>2020-05-04T13:01:48.080Z</time>
      </trkpt>
      <trkpt lat="46.20388" lon="6.1438">
        <ele>389.2</ele>
        <time>2020-05-04T13:01:50.383Z</time>
      </trkpt>
      <trkpt lat="46.20386" lon="6.14391">
        <ele>389.7</ele>
        <time>2020-05-04T13:01:53.231Z</time>
      </trkpt>
      <trkpt lat="46.20381" lon="6.14412">
        <ele>390.4</ele>
        <time>2020-05-04T13:01:58.181Z</time>
      </trkpt>
      <trkpt lat="46.2035" lon="6.14537">
        <ele>392</ele>
        <time>2020-05-04T13:02:19.183Z</time>
      </trkpt>
      <trkpt lat="46.20344" lon="6.1457">
        <ele>391.7</ele>
        <time>2020-05-04T13:02:22.537Z</time>
      </trkpt>
      <trkpt lat="46.20338" lon="6.14604">
        <ele>390.3</ele>
        <time>2020-05-04T13:02:24.776Z</time>
      </trkpt>
      <trkpt lat="46.20332" lon="6.14633">
        <ele>392.3</ele>
        <time>2020-05-04T13:02:34.737Z</time>
      </trkpt>
      <trkpt lat="46.20303" lon="6.14744">
        <ele>390.7</ele>
        <time>2020-05-04T13:02:45.620Z</time>
      </trkpt>
      <trkpt lat="46.20281" lon="6.14836">
        <ele>389.2</ele>
        <time>2020-05-04T13:02:54.254Z</time>
      </trkpt>
      <trkpt lat="46.20267" lon="6.14902">
        <ele>390.2</ele>
        <time>2020-05-04T13:03:05.489Z</time>
      </trkpt>
      <trkpt lat="46.20245" lon="6.15003">
        <ele>388.3</ele>
        <time>2020-05-04T13:03:14.540Z</time>
      </trkpt>
      <trkpt lat="46.20233" lon="6.15059">
        <ele>388</ele>
        <time>2020-05-04T13:03:20.727Z</time>
      </trkpt>
      <trkpt lat="46.20219" lon="6.15108">
        <ele>387.2</ele>
        <time>2020-05-04T13:03:25.447Z</time>
      </trkpt>
      <trkpt lat="46.20198" lon="6.15176">
        <ele>386.7</ele>
        <time>2020-05-04T13:03:33.188Z</time>
      </trkpt>
      <trkpt lat="46.20189" lon="6.15202">
        <ele>386.5</ele>
        <time>2020-05-04T13:03:36.147Z</time>
      </trkpt>
      <trkpt lat="46.20185" lon="6.15212">
        <ele>386.4</ele>
        <time>2020-05-04T13:03:37.293Z</time>
      </trkpt>
      <trkpt lat="46.20181" lon="6.15222">
        <ele>386.3</ele>
        <time>2020-05-04T13:03:38.472Z</time>
      </trkpt>
      <trkpt lat="46.20177" lon="6.15234">
        <ele>386.2</ele>
        <time>2020-05-04T13:03:39.855Z</time>
      </trkpt>
      <trkpt lat="46.20166" lon="6.15284">
        <ele>388.1</ele>
        <time>2020-05-04T13:03:52.135Z</time>
      </trkpt>
      <trkpt lat="46.20164" lon="6.15293">
        <ele>388.2</ele>
        <time>2020-05-04T13:03:53.542Z</time>
      </trkpt>
      <trkpt lat="46.20161" lon="6.153">
        <ele>388.2</ele>
        <time>2020-05-04T13:03:54.698Z</time>
      </trkpt>
      <trkpt lat="46.20158" lon="6.15306">
        <ele>388.2</ele>
        <time>2020-05-04T13:03:55.668Z</time>
      </trkpt>
      <trkpt lat="46.20153" lon="6.15312">
        <ele>388.2</ele>
        <time>2020-05-04T13:03:56.885Z</time>
      </trkpt>
      <trkpt lat="46.20148" lon="6.15316">
        <ele>388.4</ele>
        <time>2020-05-04T13:03:58.544Z</time>
      </trkpt>
      <trkpt lat="46.20141" lon="6.1532">
        <ele>388.6</ele>
        <time>2020-05-04T13:04:00.338Z</time>
      </trkpt>
      <trkpt lat="46.20134" lon="6.15324">
        <ele>389.1</ele>
        <time>2020-05-04T13:04:03.158Z</time>
      </trkpt>
      <trkpt lat="46.20128" lon="6.15323">
        <ele>389.5</ele>
        <time>2020-05-04T13:04:05.523Z</time>
      </trkpt>
      <trkpt lat="46.20121" lon="6.15321">
        <ele>389.9</ele>
        <time>2020-05-04T13:04:07.969Z</time>
      </trkpt>
      <trkpt lat="46.20106" lon="6.15314">
        <ele>390.7</ele>
        <time>2020-05-04T13:04:13.163Z</time>
      </trkpt>
      <trkpt lat="46.20101" lon="6.15311">
        <ele>390.9</ele>
        <time>2020-05-04T13:04:14.745Z</time>
      </trkpt>
      <trkpt lat="46.20097" lon="6.15307">
        <ele>390.9</ele>
        <time>2020-05-04T13:04:15.825Z</time>
      </trkpt>
      <trkpt lat="46.20092" lon="6.15301">
        <ele>390.9</ele>
        <time>2020-05-04T13:04:16.976Z</time>
      </trkpt>
      <trkpt lat="46.20085" lon="6.15291">
        <ele>390.8</ele>
        <time>2020-05-04T13:04:18.399Z</time>
      </trkpt>
      <trkpt lat="46.20075" lon="6.15278">
        <ele>393.6</ele>
        <time>2020-05-04T13:04:28.566Z</time>
      </trkpt>
      <trkpt lat="46.20068" lon="6.15267">
        <ele>393.4</ele>
        <time>2020-05-04T13:04:29.966Z</time>
      </trkpt>
      <trkpt lat="46.20062" lon="6.15256">
        <ele>393.4</ele>
        <time>2020-05-04T13:04:31.697Z</time>
      </trkpt>
      <trkpt lat="46.20057" lon="6.15246">
        <ele>393.7</ele>
        <time>2020-05-04T13:04:34.156Z</time>
      </trkpt>
      <trkpt lat="46.20036" lon="6.15215">
        <ele>394.6</ele>
        <time>2020-05-04T13:04:42.091Z</time>
      </trkpt>
      <trkpt lat="46.20013" lon="6.15184">
        <ele>395.6</ele>
        <time>2020-05-04T13:04:50.525Z</time>
      </trkpt>
      <trkpt lat="46.19989" lon="6.15149">
        <ele>399.4</ele>
        <time>2020-05-04T13:05:09.608Z</time>
      </trkpt>
      <trkpt lat="46.19982" lon="6.15137">
        <ele>400.2</ele>
        <time>2020-05-04T13:05:13.952Z</time>
      </trkpt>
      <trkpt lat="46.19972" lon="6.15119">
        <ele>400.8</ele>
        <time>2020-05-04T13:05:18.576Z</time>
      </trkpt>
      <trkpt lat="46.19962" lon="6.15106">
        <ele>401.1</ele>
        <time>2020-05-04T13:05:21.778Z</time>
      </trkpt>
      <trkpt lat="46.19864" lon="6.14965">
        <ele>402.5</ele>
        <time>2020-05-04T13:05:51.051Z</time>
      </trkpt>
      <trkpt lat="46.19842" lon="6.14935">
        <ele>401.1</ele>
        <time>2020-05-04T13:05:54.071Z</time>
      </trkpt>
      <trkpt lat="46.19819" lon="6.14902">
        <ele>397.4</ele>
        <time>2020-05-04T13:05:57.038Z</time>
      </trkpt>
      <trkpt lat="46.1981" lon="6.14892">
        <ele>396.9</ele>
        <time>2020-05-04T13:05:58.246Z</time>
      </trkpt>
      <trkpt lat="46.19802" lon="6.14885">
        <ele>396.6</ele>
        <time>2020-05-04T13:05:59.231Z</time>
      </trkpt>
      <trkpt lat="46.19796" lon="6.1488">
        <ele>396.4</ele>
        <time>2020-05-04T13:06:00.160Z</time>
      </trkpt>
      <trkpt lat="46.19779" lon="6.14857">
        <ele>395.8</ele>
        <time>2020-05-04T13:06:02.912Z</time>
      </trkpt>
      <trkpt lat="46.19766" lon="6.14838">
        <ele>395.1</ele>
        <time>2020-05-04T13:06:04.968Z</time>
      </trkpt>
      <trkpt lat="46.19764" lon="6.14836">
        <ele>395</ele>
        <time>2020-05-04T13:06:05.220Z</time>
      </trkpt>
      <trkpt lat="46.19762" lon="6.14836">
        <ele>394.9</ele>
        <time>2020-05-04T13:06:05.414Z</time>
      </trkpt>
      <trkpt lat="46.19759" lon="6.14839">
        <ele>394.7</ele>
        <time>2020-05-04T13:06:05.764Z</time>
      </trkpt>
      <trkpt lat="46.19755" lon="6.14843">
        <ele>394.8</ele>
        <time>2020-05-04T13:06:06.816Z</time>
      </trkpt>
      <trkpt lat="46.19713" lon="6.14905">
        <ele>396.3</ele>
        <time>2020-05-04T13:06:21.827Z</time>
      </trkpt>
      <trkpt lat="46.19663" lon="6.14978">
        <ele>405.8</ele>
        <time>2020-05-04T13:07:14.249Z</time>
      </trkpt>
      <trkpt lat="46.1966" lon="6.14981">
        <ele>405.9</ele>
        <time>2020-05-04T13:07:15.188Z</time>
      </trkpt>
      <trkpt lat="46.19656" lon="6.14985">
        <ele>406</ele>
        <time>2020-05-04T13:07:16.322Z</time>
      </trkpt>
      <trkpt lat="46.19652" lon="6.14986">
        <ele>406.1</ele>
        <time>2020-05-04T13:07:17.278Z</time>
      </trkpt>
      <trkpt lat="46.19649" lon="6.14987">
        <ele>406.2</ele>
        <time>2020-05-04T13:07:18.166Z</time>
      </trkpt>
      <trkpt lat="46.19631" lon="6.14991">
        <ele>406.9</ele>
        <time>2020-05-04T13:07:23.466Z</time>
      </trkpt>
      <trkpt lat="46.19619" lon="6.14993">
        <ele>407.5</ele>
        <time>2020-05-04T13:07:27.490Z</time>
      </trkpt>
      <trkpt lat="46.19617" lon="6.14995">
        <ele>407.7</ele>
        <time>2020-05-04T13:07:28.511Z</time>
      </trkpt>
      <trkpt lat="46.19615" lon="6.14998">
        <ele>407.9</ele>
        <time>2020-05-04T13:07:29.694Z</time>
      </trkpt>
      <trkpt lat="46.19611" lon="6.15002">
        <ele>408.3</ele>
        <time>2020-05-04T13:07:31.692Z</time>
      </trkpt>
      <trkpt lat="46.1958" lon="6.15051">
        <ele>406.6</ele>
        <time>2020-05-04T13:07:36.829Z</time>
      </trkpt>
      <trkpt lat="46.19575" lon="6.15058">
        <ele>406.3</ele>
        <time>2020-05-04T13:07:37.486Z</time>
      </trkpt>
      <trkpt lat="46.19571" lon="6.15062">
        <ele>406.2</ele>
        <time>2020-05-04T13:07:38.179Z</time>
      </trkpt>
      <trkpt lat="46.19552" lon="6.15081">
        <ele>405.8</ele>
        <time>2020-05-04T13:07:41.276Z</time>
      </trkpt>
      <trkpt lat="46.19549" lon="6.15083">
        <ele>405.8</ele>
        <time>2020-05-04T13:07:41.870Z</time>
      </trkpt>
      <trkpt lat="46.19545" lon="6.15083">
        <ele>405.7</ele>
        <time>2020-05-04T13:07:42.334Z</time>
      </trkpt>
      <trkpt lat="46.19542" lon="6.15081">
        <ele>405.7</ele>
        <time>2020-05-04T13:07:42.973Z</time>
      </trkpt>
      <trkpt lat="46.19539" lon="6.15077">
        <ele>405.6</ele>
        <time>2020-05-04T13:07:43.529Z</time>
      </trkpt>
      <trkpt lat="46.19536" lon="6.1507">
        <ele>405.5</ele>
        <time>2020-05-04T13:07:44.279Z</time>
      </trkpt>
      <trkpt lat="46.19489" lon="6.14979">
        <ele>397</ele>
        <time>2020-05-04T13:07:51.535Z</time>
      </trkpt>
      <trkpt lat="46.19472" lon="6.14948">
        <ele>395.2</ele>
        <time>2020-05-04T13:07:53.893Z</time>
      </trkpt>
      <trkpt lat="46.19468" lon="6.14938">
        <ele>394.9</ele>
        <time>2020-05-04T13:07:54.744Z</time>
      </trkpt>
      <trkpt lat="46.19468" lon="6.14934">
        <ele>394.9</ele>
        <time>2020-05-04T13:07:55.247Z</time>
      </trkpt>
      <trkpt lat="46.19469" lon="6.1493">
        <ele>394.9</ele>
        <time>2020-05-04T13:07:55.778Z</time>
      </trkpt>
      <trkpt lat="46.19471" lon="6.14926">
        <ele>394.9</ele>
        <time>2020-05-04T13:07:56.498Z</time>
      </trkpt>
      <trkpt lat="46.19501" lon="6.14884">
        <ele>396.8</ele>
        <time>2020-05-04T13:08:09.990Z</time>
      </trkpt>
      <trkpt lat="46.1947" lon="6.14929">
        <ele>394.9</ele>
        <time>2020-05-04T13:08:14.485Z</time>
      </trkpt>
      <trkpt lat="46.19468" lon="6.14934">
        <ele>394.9</ele>
        <time>2020-05-04T13:08:15.303Z</time>
      </trkpt>
      <trkpt lat="46.19468" lon="6.14938">
        <ele>394.9</ele>
        <time>2020-05-04T13:08:15.806Z</time>
      </trkpt>
      <trkpt lat="46.19462" lon="6.14931">
        <ele>394.6</ele>
        <time>2020-05-04T13:08:16.705Z</time>
      </trkpt>
      <trkpt lat="46.19457" lon="6.1493">
        <ele>394.3</ele>
        <time>2020-05-04T13:08:17.115Z</time>
      </trkpt>
      <trkpt lat="46.19453" lon="6.14932">
        <ele>394.2</ele>
        <time>2020-05-04T13:08:17.620Z</time>
      </trkpt>
      <trkpt lat="46.19449" lon="6.1494">
        <ele>394.2</ele>
        <time>2020-05-04T13:08:18.926Z</time>
      </trkpt>
      <trkpt lat="46.19443" lon="6.14951">
        <ele>394.3</ele>
        <time>2020-05-04T13:08:20.962Z</time>
      </trkpt>
      <trkpt lat="46.19432" lon="6.14975">
        <ele>394.5</ele>
        <time>2020-05-04T13:08:25.181Z</time>
      </trkpt>
      <trkpt lat="46.19424" lon="6.14992">
        <ele>394.3</ele>
        <time>2020-05-04T13:08:27.282Z</time>
      </trkpt>
      <trkpt lat="46.19412" lon="6.15013">
        <ele>395.4</ele>
        <time>2020-05-04T13:08:33.913Z</time>
      </trkpt>
      <trkpt lat="46.194" lon="6.15029">
        <ele>396.6</ele>
        <time>2020-05-04T13:08:40.311Z</time>
      </trkpt>
      <trkpt lat="46.19386" lon="6.1504">
        <ele>397.2</ele>
        <time>2020-05-04T13:08:44.978Z</time>
      </trkpt>
      <trkpt lat="46.19373" lon="6.15049">
        <ele>397.5</ele>
        <time>2020-05-04T13:08:48.325Z</time>
      </trkpt>
      <trkpt lat="46.19359" lon="6.15052">
        <ele>397.8</ele>
        <time>2020-05-04T13:08:51.770Z</time>
      </trkpt>
      <trkpt lat="46.1934" lon="6.15054">
        <ele>398.1</ele>
        <time>2020-05-04T13:08:56.065Z</time>
      </trkpt>
      <trkpt lat="46.19324" lon="6.15053">
        <ele>398.5</ele>
        <time>2020-05-04T13:09:00.038Z</time>
      </trkpt>
      <trkpt lat="46.19305" lon="6.15048">
        <ele>398.2</ele>
        <time>2020-05-04T13:09:02.762Z</time>
      </trkpt>
      <trkpt lat="46.19285" lon="6.15039">
        <ele>397.9</ele>
        <time>2020-05-04T13:09:05.580Z</time>
      </trkpt>
      <trkpt lat="46.19271" lon="6.15027">
        <ele>397.2</ele>
        <time>2020-05-04T13:09:07.367Z</time>
      </trkpt>
      <trkpt lat="46.1925" lon="6.15008">
        <ele>395.1</ele>
        <time>2020-05-04T13:09:09.613Z</time>
      </trkpt>
      <trkpt lat="46.1924" lon="6.14992">
        <ele>394.4</ele>
        <time>2020-05-04T13:09:11.114Z</time>
      </trkpt>
      <trkpt lat="46.19226" lon="6.14967">
        <ele>394.5</ele>
        <time>2020-05-04T13:09:15.566Z</time>
      </trkpt>
      <trkpt lat="46.19214" lon="6.14944">
        <ele>394.1</ele>
        <time>2020-05-04T13:09:18.197Z</time>
      </trkpt>
      <trkpt lat="46.19204" lon="6.14929">
        <ele>393.7</ele>
        <time>2020-05-04T13:09:19.846Z</time>
      </trkpt>
      <trkpt lat="46.19197" lon="6.14921">
        <ele>393.4</ele>
        <time>2020-05-04T13:09:20.879Z</time>
      </trkpt>
      <trkpt lat="46.1919" lon="6.14913">
        <ele>389.6</ele>
        <time>2020-05-04T13:09:21.746Z</time>
      </trkpt>
      <trkpt lat="46.19188" lon="6.14913">
        <ele>389.6</ele>
        <time>2020-05-04T13:09:21.971Z</time>
      </trkpt>
      <trkpt lat="46.19174" lon="6.14905">
        <ele>389.7</ele>
        <time>2020-05-04T13:09:25.206Z</time>
      </trkpt>
      <trkpt lat="46.19157" lon="6.149">
        <ele>388.5</ele>
        <time>2020-05-04T13:09:26.738Z</time>
      </trkpt>
      <trkpt lat="46.19135" lon="6.14897">
        <ele>387.6</ele>
        <time>2020-05-04T13:09:29.107Z</time>
      </trkpt>
      <trkpt lat="46.19112" lon="6.14893">
        <ele>387.4</ele>
        <time>2020-05-04T13:09:32.548Z</time>
      </trkpt>
      <trkpt lat="46.1904" lon="6.14883">
        <ele>387.9</ele>
        <time>2020-05-04T13:09:47.342Z</time>
      </trkpt>
      <trkpt lat="46.18981" lon="6.14876">
        <ele>391</ele>
        <time>2020-05-04T13:10:07.542Z</time>
      </trkpt>
      <trkpt lat="46.18945" lon="6.14868">
        <ele>391.9</ele>
        <time>2020-05-04T13:10:16.528Z</time>
      </trkpt>
      <trkpt lat="46.18905" lon="6.14858">
        <ele>394.8</ele>
        <time>2020-05-04T13:10:32.260Z</time>
      </trkpt>
      <trkpt lat="46.18876" lon="6.1485">
        <ele>395.1</ele>
        <time>2020-05-04T13:10:38.494Z</time>
      </trkpt>
      <trkpt lat="46.18838" lon="6.14836">
        <ele>392.9</ele>
        <time>2020-05-04T13:10:42.149Z</time>
      </trkpt>
      <trkpt lat="46.18811" lon="6.14825">
        <ele>387</ele>
        <time>2020-05-04T13:10:44.792Z</time>
      </trkpt>
      <trkpt lat="46.18789" lon="6.14812">
        <ele>384.9</ele>
        <time>2020-05-04T13:10:46.973Z</time>
      </trkpt>
      <trkpt lat="46.18762" lon="6.14794">
        <ele>383.5</ele>
        <time>2020-05-04T13:10:49.857Z</time>
      </trkpt>
      <trkpt lat="46.18743" lon="6.14777">
        <ele>379.9</ele>
        <time>2020-05-04T13:10:51.975Z</time>
      </trkpt>
      <trkpt lat="46.18734" lon="6.14763">
        <ele>379.4</ele>
        <time>2020-05-04T13:10:53.396Z</time>
      </trkpt>
      <trkpt lat="46.1873" lon="6.14744">
        <ele>378.1</ele>
        <time>2020-05-04T13:10:54.653Z</time>
      </trkpt>
      <trkpt lat="46.18727" lon="6.14727">
        <ele>377.9</ele>
        <time>2020-05-04T13:10:56.340Z</time>
      </trkpt>
      <trkpt lat="46.18727" lon="6.14711">
        <ele>377.8</ele>
        <time>2020-05-04T13:10:57.950Z</time>
      </trkpt>
      <trkpt lat="46.18728" lon="6.14697">
        <ele>377.9</ele>
        <time>2020-05-04T13:11:00.041Z</time>
      </trkpt>
      <trkpt lat="46.18729" lon="6.14685">
        <ele>378</ele>
        <time>2020-05-04T13:11:01.859Z</time>
      </trkpt>
      <trkpt lat="46.18733" lon="6.14678">
        <ele>378.1</ele>
        <time>2020-05-04T13:11:03.208Z</time>
      </trkpt>
      <trkpt lat="46.18735" lon="6.14671">
        <ele>378.3</ele>
        <time>2020-05-04T13:11:04.762Z</time>
      </trkpt>
      <trkpt lat="46.18733" lon="6.14666">
        <ele>378.5</ele>
        <time>2020-05-04T13:11:06.048Z</time>
      </trkpt>
      <trkpt lat="46.18729" lon="6.14663">
        <ele>378.4</ele>
        <time>2020-05-04T13:11:06.623Z</time>
      </trkpt>
      <trkpt lat="46.18725" lon="6.14663">
        <ele>378.4</ele>
        <time>2020-05-04T13:11:07.388Z</time>
      </trkpt>
      <trkpt lat="46.18722" lon="6.14666">
        <ele>378.3</ele>
        <time>2020-05-04T13:11:07.990Z</time>
      </trkpt>
      <trkpt lat="46.1872" lon="6.14672">
        <ele>377.8</ele>
        <time>2020-05-04T13:11:08.418Z</time>
      </trkpt>
      <trkpt lat="46.18721" lon="6.14681">
        <ele>377.8</ele>
        <time>2020-05-04T13:11:09.501Z</time>
      </trkpt>
      <trkpt lat="46.18722" lon="6.14692">
        <ele>377.8</ele>
        <time>2020-05-04T13:11:11.028Z</time>
      </trkpt>
      <trkpt lat="46.18722" lon="6.14706">
        <ele>377.7</ele>
        <time>2020-05-04T13:11:12.462Z</time>
      </trkpt>
      <trkpt lat="46.18721" lon="6.14717">
        <ele>377.7</ele>
        <time>2020-05-04T13:11:13.993Z</time>
      </trkpt>
      <trkpt lat="46.18723" lon="6.1474">
        <ele>377.9</ele>
        <time>2020-05-04T13:11:17.348Z</time>
      </trkpt>
    </trkseg>
  </trk>
</gpx>